sensor_id;sensor_type;location;lat;lon;timestamp;pressure;altitude;pressure_sealevel;temperature;humidity
54850;BME280;47660;51.334;12.396;2023-02-11T00:00:29;101860.13;;;5.17;100.00
54850;BME280;47660;51.334;12.396;2023-02-11T00:02:55;101861.00;;;5.18;100.00
54850;BME280;47660;51.334;12.396;2023-02-11T00:05:20;101865.41;;;5.17;100.00
54850;BME280;47660;51.334;12.396;2023-02-11T00:07:46;101861.94;;;5.14;100.00
54850;BME280;47660;51.334;12.396;2023-02-11T00:10:11;101857.50;;;5.17;100.00
54850;BME280;47660;51.334;12.396;2023-02-11T00:12:38;101859.75;;;5.39;100.00
54850;BME280;47660;51.334;12.396;2023-02-11T00:15:05;101843.19;;;4.79;100.00
54850;BME280;47660;51.334;12.396;2023-02-11T00:17:32;101830.91;;;4.76;100.00
54850;BME280;47660;51.334;12.396;2023-02-11T00:19:57;101826.13;;;5.03;100.00
54850;BME280;47660;51.334;12.396;2023-02-11T00:22:23;101813.78;;;5.05;100.00
54850;BME280;47660;51.334;12.396;2023-02-11T00:24:51;101803.09;;;5.13;100.00
54850;BME280;47660;51.334;12.396;2023-02-11T00:27:16;101805.97;;;4.98;100.00
54850;BME280;47660;51.334;12.396;2023-02-11T00:29:41;101791.06;;;4.98;100.00
54850;BME280;47660;51.334;12.396;2023-02-11T00:32:07;101795.34;;;5.05;100.00
54850;BME280;47660;51.334;12.396;2023-02-11T00:34:34;101801.00;;;4.81;100.00
54850;BME280;47660;51.334;12.396;2023-02-11T00:37:01;101804.75;;;5.20;100.00
54850;BME280;47660;51.334;12.396;2023-02-11T00:39:27;101790.13;;;5.01;100.00
54850;BME280;47660;51.334;12.396;2023-02-11T00:41:52;101789.97;;;5.09;100.00
54850;BME280;47660;51.334;12.396;2023-02-11T00:44:20;101787.72;;;4.87;100.00
54850;BME280;47660;51.334;12.396;2023-02-11T00:46:47;101790.06;;;5.05;100.00
54850;BME280;47660;51.334;12.396;2023-02-11T00:49:13;101788.28;;;5.06;100.00
54850;BME280;47660;51.334;12.396;2023-02-11T00:51:41;101783.44;;;5.31;100.00
54850;BME280;47660;51.334;12.396;2023-02-11T00:54:07;101790.47;;;5.31;100.00
54850;BME280;47660;51.334;12.396;2023-02-11T00:56:33;101786.34;;;5.16;100.00
54850;BME280;47660;51.334;12.396;2023-02-11T00:58:58;101789.13;;;5.08;100.00
54850;BME280;47660;51.334;12.396;2023-02-11T01:01:24;101780.97;;;5.24;100.00
54850;BME280;47660;51.334;12.396;2023-02-11T01:03:50;101767.84;;;5.19;100.00
54850;BME280;47660;51.334;12.396;2023-02-11T01:06:18;101772.56;;;5.01;100.00
54850;BME280;47660;51.334;12.396;2023-02-11T01:08:44;101775.81;;;5.16;100.00
54850;BME280;47660;51.334;12.396;2023-02-11T01:11:17;101774.75;;;5.28;100.00
54850;BME280;47660;51.334;12.396;2023-02-11T01:13:43;101772.22;;;4.68;100.00
54850;BME280;47660;51.334;12.396;2023-02-11T01:16:10;101767.09;;;5.11;100.00
54850;BME280;47660;51.334;12.396;2023-02-11T01:18:38;101763.34;;;5.26;100.00
54850;BME280;47660;51.334;12.396;2023-02-11T01:21:06;101757.09;;;4.81;100.00
54850;BME280;47660;51.334;12.396;2023-02-11T01:23:36;101745.72;;;4.79;100.00
54850;BME280;47660;51.334;12.396;2023-02-11T01:26:02;101741.88;;;5.46;100.00
54850;BME280;47660;51.334;12.396;2023-02-11T01:28:29;101743.59;;;5.00;100.00
54850;BME280;47660;51.334;12.396;2023-02-11T01:30:59;101747.53;;;5.26;100.00
54850;BME280;47660;51.334;12.396;2023-02-11T01:33:25;101744.75;;;5.33;100.00
54850;BME280;47660;51.334;12.396;2023-02-11T01:35:50;101740.13;;;5.45;100.00
54850;BME280;47660;51.334;12.396;2023-02-11T01:38:25;101734.66;;;5.56;100.00
54850;BME280;47660;51.334;12.396;2023-02-11T01:40:56;101738.84;;;5.66;100.00
54850;BME280;47660;51.334;12.396;2023-02-11T01:43:23;101734.53;;;5.62;100.00
54850;BME280;47660;51.334;12.396;2023-02-11T01:45:58;101736.16;;;5.68;100.00
54850;BME280;47660;51.334;12.396;2023-02-11T01:48:28;101738.06;;;5.61;100.00
54850;BME280;47660;51.334;12.396;2023-02-11T01:51:02;101729.84;;;5.76;100.00
54850;BME280;47660;51.334;12.396;2023-02-11T01:53:29;101723.13;;;5.60;100.00
54850;BME280;47660;51.334;12.396;2023-02-11T01:56:15;101742.78;;;5.43;100.00
54850;BME280;47660;51.334;12.396;2023-02-11T01:59:06;101732.25;;;5.43;100.00
54850;BME280;47660;51.334;12.396;2023-02-11T02:01:35;101725.31;;;5.82;100.00
54850;BME280;47660;51.334;12.396;2023-02-11T02:04:03;101721.41;;;5.57;100.00
54850;BME280;47660;51.334;12.396;2023-02-11T02:06:34;101740.09;;;5.48;100.00
54850;BME280;47660;51.334;12.396;2023-02-11T02:09:15;101748.94;;;5.44;100.00
54850;BME280;47660;51.334;12.396;2023-02-11T02:11:42;101753.22;;;5.51;100.00
54850;BME280;47660;51.334;12.396;2023-02-11T02:14:08;101743.97;;;5.28;100.00
54850;BME280;47660;51.334;12.396;2023-02-11T02:16:35;101736.44;;;5.54;100.00
54850;BME280;47660;51.334;12.396;2023-02-11T02:19:16;101748.19;;;5.81;100.00
54850;BME280;47660;51.334;12.396;2023-02-11T02:22:14;101748.84;;;5.91;100.00
54850;BME280;47660;51.334;12.396;2023-02-11T02:37:38;101708.59;;;6.23;100.00
54850;BME280;47660;51.334;12.396;2023-02-11T02:40:10;101701.50;;;6.26;100.00
54850;BME280;47660;51.334;12.396;2023-02-11T02:42:39;101710.94;;;5.97;100.00
54850;BME280;47660;51.334;12.396;2023-02-11T02:45:10;101698.22;;;6.16;100.00
54850;BME280;47660;51.334;12.396;2023-02-11T02:47:36;101695.00;;;6.01;100.00
54850;BME280;47660;51.334;12.396;2023-02-11T02:50:03;101692.88;;;6.55;100.00
54850;BME280;47660;51.334;12.396;2023-02-11T02:55:10;101690.56;;;6.41;100.00
54850;BME280;47660;51.334;12.396;2023-02-11T02:58:02;101682.53;;;6.46;100.00
54850;BME280;47660;51.334;12.396;2023-02-11T03:06:38;101691.34;;;6.08;100.00
54850;BME280;47660;51.334;12.396;2023-02-11T03:09:19;101700.63;;;6.25;100.00
54850;BME280;47660;51.334;12.396;2023-02-11T03:11:47;101703.34;;;6.58;100.00
54850;BME280;47660;51.334;12.396;2023-02-11T03:14:16;101704.22;;;6.59;100.00
54850;BME280;47660;51.334;12.396;2023-02-11T03:16:43;101698.25;;;6.50;100.00
54850;BME280;47660;51.334;12.396;2023-02-11T03:19:31;101695.81;;;6.77;100.00
54850;BME280;47660;51.334;12.396;2023-02-11T03:21:58;101695.75;;;6.80;100.00
54850;BME280;47660;51.334;12.396;2023-02-11T03:24:33;101697.34;;;6.86;100.00
54850;BME280;47660;51.334;12.396;2023-02-11T03:27:16;101701.56;;;6.95;100.00
54850;BME280;47660;51.334;12.396;2023-02-11T03:29:50;101683.69;;;7.03;100.00
54850;BME280;47660;51.334;12.396;2023-02-11T03:32:22;101682.16;;;6.61;100.00
54850;BME280;47660;51.334;12.396;2023-02-11T03:35:05;101670.38;;;6.38;100.00
54850;BME280;47660;51.334;12.396;2023-02-11T03:37:37;101661.00;;;6.27;100.00
54850;BME280;47660;51.334;12.396;2023-02-11T03:40:11;101664.63;;;6.57;100.00
54850;BME280;47660;51.334;12.396;2023-02-11T03:42:44;101660.88;;;6.99;100.00
54850;BME280;47660;51.334;12.396;2023-02-11T03:45:15;101664.94;;;6.79;100.00
54850;BME280;47660;51.334;12.396;2023-02-11T03:47:45;101653.59;;;7.09;100.00
54850;BME280;47660;51.334;12.396;2023-02-11T03:50:14;101674.47;;;6.85;100.00
54850;BME280;47660;51.334;12.396;2023-02-11T03:52:50;101662.03;;;6.56;100.00
54850;BME280;47660;51.334;12.396;2023-02-11T03:55:18;101660.28;;;6.89;100.00
54850;BME280;47660;51.334;12.396;2023-02-11T03:57:47;101662.38;;;7.09;100.00
54850;BME280;47660;51.334;12.396;2023-02-11T04:00:15;101659.13;;;6.99;100.00
54850;BME280;47660;51.334;12.396;2023-02-11T04:02:41;101650.22;;;7.02;100.00
54850;BME280;47660;51.334;12.396;2023-02-11T04:05:09;101648.06;;;7.17;100.00
54850;BME280;47660;51.334;12.396;2023-02-11T04:07:35;101659.06;;;7.01;100.00
54850;BME280;47660;51.334;12.396;2023-02-11T04:10:00;101654.75;;;7.30;99.87
54850;BME280;47660;51.334;12.396;2023-02-11T04:12:28;101656.63;;;6.93;100.00
54850;BME280;47660;51.334;12.396;2023-02-11T04:14:54;101658.50;;;6.90;100.00
54850;BME280;47660;51.334;12.396;2023-02-11T04:17:19;101656.81;;;6.87;100.00
54850;BME280;47660;51.334;12.396;2023-02-11T04:19:47;101631.03;;;6.95;100.00
54850;BME280;47660;51.334;12.396;2023-02-11T04:22:12;101653.22;;;6.90;100.00
54850;BME280;47660;51.334;12.396;2023-02-11T04:24:38;101635.50;;;6.93;100.00
54850;BME280;47660;51.334;12.396;2023-02-11T04:27:08;101635.75;;;6.84;100.00
54850;BME280;47660;51.334;12.396;2023-02-11T04:29:36;101641.84;;;6.88;100.00
54850;BME280;47660;51.334;12.396;2023-02-11T04:32:01;101639.66;;;7.02;100.00
54850;BME280;47660;51.334;12.396;2023-02-11T04:34:27;101636.81;;;7.10;100.00
54850;BME280;47660;51.334;12.396;2023-02-11T04:36:52;101638.38;;;6.86;100.00
54850;BME280;47660;51.334;12.396;2023-02-11T04:39:17;101645.03;;;6.99;100.00
54850;BME280;47660;51.334;12.396;2023-02-11T04:41:43;101639.03;;;6.94;100.00
54850;BME280;47660;51.334;12.396;2023-02-11T04:44:09;101624.69;;;7.01;100.00
54850;BME280;47660;51.334;12.396;2023-02-11T04:46:35;101644.63;;;6.81;100.00
54850;BME280;47660;51.334;12.396;2023-02-11T04:49:00;101640.09;;;6.87;100.00
54850;BME280;47660;51.334;12.396;2023-02-11T04:51:25;101644.34;;;6.59;100.00
54850;BME280;47660;51.334;12.396;2023-02-11T04:53:51;101638.88;;;6.98;100.00
54850;BME280;47660;51.334;12.396;2023-02-11T04:56:16;101637.84;;;6.71;100.00
54850;BME280;47660;51.334;12.396;2023-02-11T04:58:42;101640.19;;;6.82;100.00
54850;BME280;47660;51.334;12.396;2023-02-11T05:01:09;101634.94;;;7.13;100.00
54850;BME280;47660;51.334;12.396;2023-02-11T05:03:35;101646.88;;;6.97;100.00
54850;BME280;47660;51.334;12.396;2023-02-11T05:06:01;101631.78;;;7.32;100.00
54850;BME280;47660;51.334;12.396;2023-02-11T05:08:28;101645.16;;;6.94;100.00
54850;BME280;47660;51.334;12.396;2023-02-11T05:10:54;101637.06;;;7.01;100.00
54850;BME280;47660;51.334;12.396;2023-02-11T05:13:19;101636.50;;;6.89;100.00
54850;BME280;47660;51.334;12.396;2023-02-11T05:15:45;101635.97;;;7.39;100.00
54850;BME280;47660;51.334;12.396;2023-02-11T05:18:10;101628.81;;;7.11;100.00
54850;BME280;47660;51.334;12.396;2023-02-11T05:20:40;101626.94;;;7.75;98.88
54850;BME280;47660;51.334;12.396;2023-02-11T05:23:06;101635.31;;;7.61;98.15
54850;BME280;47660;51.334;12.396;2023-02-11T05:25:33;101625.31;;;7.42;100.00
54850;BME280;47660;51.334;12.396;2023-02-11T05:27:59;101633.56;;;7.62;99.07
54850;BME280;47660;51.334;12.396;2023-02-11T05:30:26;101617.81;;;7.57;98.45
54850;BME280;47660;51.334;12.396;2023-02-11T05:32:54;101632.34;;;7.12;100.00
54850;BME280;47660;51.334;12.396;2023-02-11T05:35:19;101628.47;;;7.24;100.00
54850;BME280;47660;51.334;12.396;2023-02-11T05:37:45;101636.50;;;7.21;100.00
54850;BME280;47660;51.334;12.396;2023-02-11T05:40:10;101635.59;;;7.22;100.00
54850;BME280;47660;51.334;12.396;2023-02-11T05:42:38;101636.09;;;7.03;100.00
54850;BME280;47660;51.334;12.396;2023-02-11T05:45:04;101644.03;;;7.03;100.00
54850;BME280;47660;51.334;12.396;2023-02-11T05:47:30;101638.75;;;7.03;100.00
54850;BME280;47660;51.334;12.396;2023-02-11T05:49:55;101639.22;;;7.18;100.00
54850;BME280;47660;51.334;12.396;2023-02-11T05:52:21;101645.03;;;6.66;100.00
54850;BME280;47660;51.334;12.396;2023-02-11T05:54:47;101633.63;;;7.28;100.00
54850;BME280;47660;51.334;12.396;2023-02-11T05:57:13;101633.25;;;7.11;100.00
54850;BME280;47660;51.334;12.396;2023-02-11T05:59:39;101627.59;;;7.23;100.00
54850;BME280;47660;51.334;12.396;2023-02-11T06:02:04;101635.16;;;7.06;100.00
54850;BME280;47660;51.334;12.396;2023-02-11T06:04:29;101617.44;;;7.09;100.00
54850;BME280;47660;51.334;12.396;2023-02-11T06:06:55;101620.81;;;7.14;100.00
54850;BME280;47660;51.334;12.396;2023-02-11T06:09:23;101617.16;;;6.87;100.00
54850;BME280;47660;51.334;12.396;2023-02-11T06:11:49;101610.94;;;6.90;100.00
54850;BME280;47660;51.334;12.396;2023-02-11T06:14:14;101622.88;;;6.72;100.00
54850;BME280;47660;51.334;12.396;2023-02-11T06:16:40;101611.38;;;7.06;100.00
54850;BME280;47660;51.334;12.396;2023-02-11T06:19:05;101620.22;;;7.65;100.00
54850;BME280;47660;51.334;12.396;2023-02-11T06:21:33;101607.63;;;7.45;100.00
54850;BME280;47660;51.334;12.396;2023-02-11T06:23:58;101616.78;;;7.01;100.00
54850;BME280;47660;51.334;12.396;2023-02-11T06:26:24;101608.00;;;6.99;100.00
54850;BME280;47660;51.334;12.396;2023-02-11T06:28:49;101602.72;;;6.99;100.00
54850;BME280;47660;51.334;12.396;2023-02-11T06:31:17;101598.31;;;7.31;100.00
54850;BME280;47660;51.334;12.396;2023-02-11T06:33:43;101598.47;;;6.95;100.00
54850;BME280;47660;51.334;12.396;2023-02-11T06:36:15;101604.03;;;7.16;100.00
54850;BME280;47660;51.334;12.396;2023-02-11T06:38:41;101614.09;;;7.03;100.00
54850;BME280;47660;51.334;12.396;2023-02-11T06:41:17;101619.00;;;7.17;100.00
54850;BME280;47660;51.334;12.396;2023-02-11T06:43:44;101623.34;;;6.86;100.00
54850;BME280;47660;51.334;12.396;2023-02-11T06:46:10;101606.03;;;7.07;100.00
54850;BME280;47660;51.334;12.396;2023-02-11T06:48:36;101616.88;;;6.98;100.00
54850;BME280;47660;51.334;12.396;2023-02-11T06:51:07;101618.97;;;6.85;100.00
54850;BME280;47660;51.334;12.396;2023-02-11T06:53:38;101620.38;;;6.98;100.00
54850;BME280;47660;51.334;12.396;2023-02-11T06:56:05;101630.91;;;7.00;100.00
54850;BME280;47660;51.334;12.396;2023-02-11T06:58:32;101628.38;;;6.97;100.00
54850;BME280;47660;51.334;12.396;2023-02-11T07:01:03;101626.66;;;6.94;100.00
54850;BME280;47660;51.334;12.396;2023-02-11T07:03:33;101632.94;;;7.22;100.00
54850;BME280;47660;51.334;12.396;2023-02-11T07:06:00;101626.00;;;7.48;100.00
54850;BME280;47660;51.334;12.396;2023-02-11T07:08:25;101632.28;;;7.13;100.00
54850;BME280;47660;51.334;12.396;2023-02-11T07:10:51;101617.91;;;7.24;100.00
54850;BME280;47660;51.334;12.396;2023-02-11T07:13:19;101623.94;;;7.29;100.00
54850;BME280;47660;51.334;12.396;2023-02-11T07:15:44;101618.56;;;7.32;100.00
54850;BME280;47660;51.334;12.396;2023-02-11T07:18:09;101618.16;;;7.14;100.00
54850;BME280;47660;51.334;12.396;2023-02-11T07:20:36;101623.53;;;7.11;100.00
54850;BME280;47660;51.334;12.396;2023-02-11T07:23:03;101625.22;;;7.46;100.00
54850;BME280;47660;51.334;12.396;2023-02-11T07:25:29;101626.91;;;7.17;100.00
54850;BME280;47660;51.334;12.396;2023-02-11T07:27:54;101638.91;;;7.28;100.00
54850;BME280;47660;51.334;12.396;2023-02-11T07:30:20;101635.53;;;7.23;100.00
54850;BME280;47660;51.334;12.396;2023-02-11T07:32:47;101630.59;;;7.42;100.00
54850;BME280;47660;51.334;12.396;2023-02-11T07:35:13;101638.56;;;7.41;100.00
54850;BME280;47660;51.334;12.396;2023-02-11T07:37:39;101632.94;;;7.52;100.00
54850;BME280;47660;51.334;12.396;2023-02-11T07:40:06;101636.41;;;7.54;100.00
54850;BME280;47660;51.334;12.396;2023-02-11T07:42:33;101622.97;;;7.62;100.00
54850;BME280;47660;51.334;12.396;2023-02-11T07:44:59;101625.19;;;7.76;100.00
54850;BME280;47660;51.334;12.396;2023-02-11T07:47:24;101619.88;;;7.76;100.00
54850;BME280;47660;51.334;12.396;2023-02-11T07:49:50;101626.31;;;7.38;100.00
54850;BME280;47660;51.334;12.396;2023-02-11T07:52:15;101634.75;;;7.80;100.00
54850;BME280;47660;51.334;12.396;2023-02-11T07:54:43;101633.66;;;7.58;100.00
54850;BME280;47660;51.334;12.396;2023-02-11T07:57:08;101623.91;;;7.59;100.00
54850;BME280;47660;51.334;12.396;2023-02-11T07:59:34;101628.19;;;7.63;100.00
54850;BME280;47660;51.334;12.396;2023-02-11T08:02:02;101630.75;;;7.66;100.00
54850;BME280;47660;51.334;12.396;2023-02-11T08:04:28;101629.75;;;7.99;100.00
54850;BME280;47660;51.334;12.396;2023-02-11T08:06:58;101620.91;;;7.71;100.00
54850;BME280;47660;51.334;12.396;2023-02-11T08:09:23;101616.06;;;8.13;100.00
54850;BME280;47660;51.334;12.396;2023-02-11T08:11:49;101615.59;;;7.71;100.00
54850;BME280;47660;51.334;12.396;2023-02-11T08:14:14;101610.22;;;7.75;100.00
54850;BME280;47660;51.334;12.396;2023-02-11T08:16:51;101607.50;;;7.76;100.00
54850;BME280;47660;51.334;12.396;2023-02-11T08:19:16;101617.59;;;7.65;100.00
54850;BME280;47660;51.334;12.396;2023-02-11T08:21:42;101622.53;;;7.76;100.00
54850;BME280;47660;51.334;12.396;2023-02-11T08:24:08;101629.84;;;7.67;100.00
54850;BME280;47660;51.334;12.396;2023-02-11T08:26:34;101650.28;;;7.62;100.00
54850;BME280;47660;51.334;12.396;2023-02-11T08:29:06;101661.59;;;7.37;100.00
54850;BME280;47660;51.334;12.396;2023-02-11T08:31:34;101627.66;;;7.82;100.00
54850;BME280;47660;51.334;12.396;2023-02-11T08:34:01;101628.56;;;7.81;100.00
54850;BME280;47660;51.334;12.396;2023-02-11T08:36:34;101614.34;;;7.83;100.00
54850;BME280;47660;51.334;12.396;2023-02-11T08:39:03;101619.09;;;8.00;100.00
54850;BME280;47660;51.334;12.396;2023-02-11T08:41:30;101627.94;;;7.99;100.00
54850;BME280;47660;51.334;12.396;2023-02-11T08:43:58;101625.00;;;7.52;100.00
54850;BME280;47660;51.334;12.396;2023-02-11T08:46:24;101614.06;;;7.93;100.00
54850;BME280;47660;51.334;12.396;2023-02-11T08:48:52;101621.75;;;8.00;100.00
54850;BME280;47660;51.334;12.396;2023-02-11T08:51:24;101619.25;;;8.23;100.00
54850;BME280;47660;51.334;12.396;2023-02-11T08:53:53;101622.69;;;8.26;100.00
54850;BME280;47660;51.334;12.396;2023-02-11T08:56:25;101628.53;;;8.09;100.00
54850;BME280;47660;51.334;12.396;2023-02-11T08:59:02;101632.97;;;7.80;100.00
54850;BME280;47660;51.334;12.396;2023-02-11T09:01:33;101618.69;;;7.86;100.00
54850;BME280;47660;51.334;12.396;2023-02-11T09:04:04;101630.28;;;7.82;100.00
54850;BME280;47660;51.334;12.396;2023-02-11T09:06:31;101634.56;;;7.86;100.00
54850;BME280;47660;51.334;12.396;2023-02-11T09:09:01;101633.56;;;7.90;100.00
54850;BME280;47660;51.334;12.396;2023-02-11T09:11:32;101625.47;;;8.22;100.00
54850;BME280;47660;51.334;12.396;2023-02-11T09:14:01;101624.06;;;8.11;100.00
54850;BME280;47660;51.334;12.396;2023-02-11T09:16:32;101635.81;;;8.58;100.00
54850;BME280;47660;51.334;12.396;2023-02-11T09:19:04;101648.50;;;8.46;100.00
54850;BME280;47660;51.334;12.396;2023-02-11T09:21:30;101651.56;;;8.34;100.00
54850;BME280;47660;51.334;12.396;2023-02-11T09:23:56;101659.78;;;8.26;100.00
54850;BME280;47660;51.334;12.396;2023-02-11T09:26:24;101655.75;;;8.14;100.00
54850;BME280;47660;51.334;12.396;2023-02-11T09:28:50;101664.56;;;8.42;100.00
54850;BME280;47660;51.334;12.396;2023-02-11T09:31:22;101663.16;;;8.58;100.00
54850;BME280;47660;51.334;12.396;2023-02-11T09:33:53;101678.97;;;8.33;100.00
54850;BME280;47660;51.334;12.396;2023-02-11T09:36:27;101659.47;;;8.36;100.00
54850;BME280;47660;51.334;12.396;2023-02-11T09:38:58;101673.31;;;8.44;100.00
54850;BME280;47660;51.334;12.396;2023-02-11T09:44:29;101661.63;;;8.23;100.00
54850;BME280;47660;51.334;12.396;2023-02-11T09:46:59;101663.25;;;8.55;100.00
54850;BME280;47660;51.334;12.396;2023-02-11T09:52:39;101669.66;;;8.75;100.00
54850;BME280;47660;51.334;12.396;2023-02-11T09:55:23;101661.22;;;9.62;100.00
54850;BME280;47660;51.334;12.396;2023-02-11T09:57:52;101661.75;;;9.48;100.00
54850;BME280;47660;51.334;12.396;2023-02-11T10:00:29;101664.63;;;8.92;100.00
54850;BME280;47660;51.334;12.396;2023-02-11T10:03:20;101670.69;;;8.96;100.00
54850;BME280;47660;51.334;12.396;2023-02-11T10:06:15;101665.06;;;8.80;100.00
54850;BME280;47660;51.334;12.396;2023-02-11T10:09:00;101644.56;;;8.85;100.00
54850;BME280;47660;51.334;12.396;2023-02-11T10:22:36;101640.34;;;9.29;100.00
54850;BME280;47660;51.334;12.396;2023-02-11T10:25:21;101646.91;;;9.66;100.00
54850;BME280;47660;51.334;12.396;2023-02-11T10:27:51;101652.00;;;9.25;100.00
54850;BME280;47660;51.334;12.396;2023-02-11T10:30:35;101647.69;;;8.97;100.00
54850;BME280;47660;51.334;12.396;2023-02-11T10:33:32;101635.59;;;9.13;100.00
54850;BME280;47660;51.334;12.396;2023-02-11T10:36:04;101650.53;;;9.16;100.00
54850;BME280;47660;51.334;12.396;2023-02-11T10:38:30;101645.06;;;9.44;100.00
54850;BME280;47660;51.334;12.396;2023-02-11T10:40:57;101646.81;;;9.21;100.00
54850;BME280;47660;51.334;12.396;2023-02-11T10:43:25;101662.75;;;8.96;100.00
54850;BME280;47660;51.334;12.396;2023-02-11T10:45:54;101657.53;;;9.18;100.00
54850;BME280;47660;51.334;12.396;2023-02-11T10:48:44;101661.47;;;9.32;100.00
54850;BME280;47660;51.334;12.396;2023-02-11T10:53:50;101660.66;;;9.30;100.00
54850;BME280;47660;51.334;12.396;2023-02-11T10:56:45;101661.81;;;9.23;100.00
54850;BME280;47660;51.334;12.396;2023-02-11T11:02:04;101634.94;;;9.32;100.00
54850;BME280;47660;51.334;12.396;2023-02-11T11:04:38;101623.38;;;9.09;100.00
54850;BME280;47660;51.334;12.396;2023-02-11T11:09:59;101628.09;;;9.48;100.00
54850;BME280;47660;51.334;12.396;2023-02-11T11:15:27;101650.09;;;9.28;100.00
54850;BME280;47660;51.334;12.396;2023-02-11T11:20:37;101616.06;;;9.16;100.00
54850;BME280;47660;51.334;12.396;2023-02-11T11:23:22;101619.78;;;9.58;100.00
54850;BME280;47660;51.334;12.396;2023-02-11T11:26:10;101624.25;;;9.33;100.00
54850;BME280;47660;51.334;12.396;2023-02-11T11:31:21;101623.44;;;9.31;100.00
54850;BME280;47660;51.334;12.396;2023-02-11T11:33:50;101615.66;;;9.73;100.00
54850;BME280;47660;51.334;12.396;2023-02-11T11:36:22;101619.41;;;9.21;100.00
54850;BME280;47660;51.334;12.396;2023-02-11T11:38:57;101632.78;;;9.42;100.00
54850;BME280;47660;51.334;12.396;2023-02-11T11:41:31;101626.38;;;9.47;100.00
54850;BME280;47660;51.334;12.396;2023-02-11T11:44:15;101637.00;;;9.47;100.00
54850;BME280;47660;51.334;12.396;2023-02-11T11:46:48;101635.69;;;9.59;100.00
54850;BME280;47660;51.334;12.396;2023-02-11T11:49:31;101637.91;;;9.46;100.00
54850;BME280;47660;51.334;12.396;2023-02-11T11:54:35;101651.94;;;9.50;100.00
54850;BME280;47660;51.334;12.396;2023-02-11T11:57:11;101661.78;;;9.46;100.00
54850;BME280;47660;51.334;12.396;2023-02-11T11:59:39;101638.59;;;9.51;100.00
54850;BME280;47660;51.334;12.396;2023-02-11T12:05:35;101637.97;;;9.91;100.00
54850;BME280;47660;51.334;12.396;2023-02-11T12:08:18;101642.75;;;9.59;100.00
54850;BME280;47660;51.334;12.396;2023-02-11T12:10:57;101648.53;;;9.92;100.00
54850;BME280;47660;51.334;12.396;2023-02-11T12:13:48;101644.63;;;10.23;100.00
54850;BME280;47660;51.334;12.396;2023-02-11T12:19:34;101647.38;;;10.00;100.00
54850;BME280;47660;51.334;12.396;2023-02-11T12:22:25;101654.63;;;9.72;100.00
54850;BME280;47660;51.334;12.396;2023-02-11T12:32:49;101642.78;;;9.81;100.00
54850;BME280;47660;51.334;12.396;2023-02-11T12:43:43;101627.97;;;9.98;100.00
54850;BME280;47660;51.334;12.396;2023-02-11T12:54:29;101628.22;;;9.69;100.00
54850;BME280;47660;51.334;12.396;2023-02-11T12:57:07;101630.97;;;9.66;100.00
54850;BME280;47660;51.334;12.396;2023-02-11T13:05:24;101636.53;;;9.82;100.00
54850;BME280;47660;51.334;12.396;2023-02-11T13:07:54;101636.31;;;10.10;100.00
54850;BME280;47660;51.334;12.396;2023-02-11T13:10:40;101629.16;;;9.90;100.00
54850;BME280;47660;51.334;12.396;2023-02-11T13:13:15;101623.38;;;9.79;100.00
54850;BME280;47660;51.334;12.396;2023-02-11T13:15:47;101622.28;;;10.07;100.00
54850;BME280;47660;51.334;12.396;2023-02-11T13:18:33;101622.78;;;9.72;100.00
54850;BME280;47660;51.334;12.396;2023-02-11T13:21:24;101625.13;;;10.02;100.00
54850;BME280;47660;51.334;12.396;2023-02-11T13:24:14;101639.03;;;9.87;100.00
54850;BME280;47660;51.334;12.396;2023-02-11T13:26:48;101617.25;;;9.55;100.00
54850;BME280;47660;51.334;12.396;2023-02-11T13:31:42;101624.94;;;9.85;100.00
54850;BME280;47660;51.334;12.396;2023-02-11T13:40:20;101631.00;;;9.88;100.00
54850;BME280;47660;51.334;12.396;2023-02-11T13:42:53;101634.53;;;10.11;100.00
54850;BME280;47660;51.334;12.396;2023-02-11T13:45:36;101637.72;;;9.75;100.00
54850;BME280;47660;51.334;12.396;2023-02-11T13:48:23;101629.81;;;9.73;100.00
54850;BME280;47660;51.334;12.396;2023-02-11T13:50:56;101646.00;;;9.89;100.00
54850;BME280;47660;51.334;12.396;2023-02-11T13:53:25;101645.22;;;9.63;100.00
54850;BME280;47660;51.334;12.396;2023-02-11T13:56:22;101640.28;;;9.54;100.00
54850;BME280;47660;51.334;12.396;2023-02-11T13:58:50;101645.88;;;9.70;100.00
54850;BME280;47660;51.334;12.396;2023-02-11T14:01:39;101633.03;;;10.26;100.00
54850;BME280;47660;51.334;12.396;2023-02-11T14:04:32;101628.53;;;9.84;100.00
54850;BME280;47660;51.334;12.396;2023-02-11T14:07:31;101643.47;;;10.08;100.00
54850;BME280;47660;51.334;12.396;2023-02-11T14:13:28;101636.78;;;9.98;100.00
54850;BME280;47660;51.334;12.396;2023-02-11T14:18:57;101635.81;;;9.78;100.00
54850;BME280;47660;51.334;12.396;2023-02-11T14:23:54;101641.34;;;9.50;100.00
54850;BME280;47660;51.334;12.396;2023-02-11T14:29:41;101634.22;;;9.96;100.00
54850;BME280;47660;51.334;12.396;2023-02-11T14:34:50;101642.91;;;10.45;100.00
54850;BME280;47660;51.334;12.396;2023-02-11T14:42:36;101645.63;;;9.52;100.00
54850;BME280;47660;51.334;12.396;2023-02-11T14:45:14;101645.50;;;9.79;100.00
54850;BME280;47660;51.334;12.396;2023-02-11T14:48:05;101642.72;;;9.60;100.00
54850;BME280;47660;51.334;12.396;2023-02-11T14:50:53;101640.00;;;9.84;100.00
54850;BME280;47660;51.334;12.396;2023-02-11T14:53:30;101639.22;;;10.04;100.00
54850;BME280;47660;51.334;12.396;2023-02-11T14:55:57;101634.97;;;9.54;100.00
54850;BME280;47660;51.334;12.396;2023-02-11T14:58:28;101638.41;;;9.80;100.00
54850;BME280;47660;51.334;12.396;2023-02-11T15:00:58;101629.00;;;9.71;100.00